sensor_id;sensor_type;location;lat;lon;timestamp;temperature;humidity
60033;DHT22;45905;50.570;10.428;2022-10-16T00:01:40;15.30;99.90
60033;DHT22;45905;50.570;10.428;2022-10-16T00:04:09;15.30;99.90
60033;DHT22;45905;50.570;10.428;2022-10-16T00:06:36;15.20;99.90
60033;DHT22;45905;50.570;10.428;2022-10-16T00:09:04;15.20;99.90
60033;DHT22;45905;50.570;10.428;2022-10-16T00:11:34;15.20;99.90
60033;DHT22;45905;50.570;10.428;2022-10-16T00:14:08;15.20;99.90
60033;DHT22;45905;50.570;10.428;2022-10-16T00:16:37;15.20;99.90
60033;DHT22;45905;50.570;10.428;2022-10-16T00:19:05;15.20;99.90
60033;DHT22;45905;50.570;10.428;2022-10-16T00:21:33;15.20;99.90
60033;DHT22;45905;50.570;10.428;2022-10-16T00:24:05;15.10;99.90
60033;DHT22;45905;50.570;10.428;2022-10-16T00:26:36;15.10;99.90
60033;DHT22;45905;50.570;10.428;2022-10-16T00:29:04;15.10;99.90
60033;DHT22;45905;50.570;10.428;2022-10-16T00:31:32;15.10;99.90
60033;DHT22;45905;50.570;10.428;2022-10-16T00:34:00;15.10;99.90
60033;DHT22;45905;50.570;10.428;2022-10-16T00:36:27;15.10;99.90
60033;DHT22;45905;50.570;10.428;2022-10-16T00:38:56;15.10;99.90
60033;DHT22;45905;50.570;10.428;2022-10-16T00:41:26;15.10;99.90
60033;DHT22;45905;50.570;10.428;2022-10-16T00:44:00;15.10;99.90
60033;DHT22;45905;50.570;10.428;2022-10-16T00:49:15;15.00;99.90
60033;DHT22;45905;50.570;10.428;2022-10-16T00:51:47;15.00;99.90
60033;DHT22;45905;50.570;10.428;2022-10-16T00:54:27;15.00;99.90
60033;DHT22;45905;50.570;10.428;2022-10-16T00:57:04;15.00;99.90
60033;DHT22;45905;50.570;10.428;2022-10-16T00:59:37;14.90;99.90
60033;DHT22;45905;50.570;10.428;2022-10-16T01:02:07;14.90;99.90
60033;DHT22;45905;50.570;10.428;2022-10-16T01:04:51;14.90;99.90
60033;DHT22;45905;50.570;10.428;2022-10-16T01:07:26;14.90;99.90
60033;DHT22;45905;50.570;10.428;2022-10-16T01:13:15;14.90;99.90
60033;DHT22;45905;50.570;10.428;2022-10-16T01:15:56;14.80;99.90
60033;DHT22;45905;50.570;10.428;2022-10-16T01:18:44;14.80;99.90
60033;DHT22;45905;50.570;10.428;2022-10-16T01:21:28;14.80;99.90
60033;DHT22;45905;50.570;10.428;2022-10-16T01:35:05;14.70;99.90
60033;DHT22;45905;50.570;10.428;2022-10-16T01:37:43;14.70;99.90
60033;DHT22;45905;50.570;10.428;2022-10-16T01:40:16;14.70;99.90
60033;DHT22;45905;50.570;10.428;2022-10-16T01:42:50;14.80;99.90
60033;DHT22;45905;50.570;10.428;2022-10-16T01:45:21;14.80;99.90
60033;DHT22;45905;50.570;10.428;2022-10-16T01:47:49;14.60;99.90
60033;DHT22;45905;50.570;10.428;2022-10-16T01:50:20;14.60;99.90
60033;DHT22;45905;50.570;10.428;2022-10-16T01:52:50;14.60;99.90
60033;DHT22;45905;50.570;10.428;2022-10-16T01:55:26;14.60;99.90
60033;DHT22;45905;50.570;10.428;2022-10-16T01:57:59;14.60;99.90
60033;DHT22;45905;50.570;10.428;2022-10-16T02:00:29;14.60;99.90
60033;DHT22;45905;50.570;10.428;2022-10-16T02:02:59;14.60;99.90
60033;DHT22;45905;50.570;10.428;2022-10-16T02:08:08;14.60;99.90
60033;DHT22;45905;50.570;10.428;2022-10-16T02:10:37;14.60;99.90
60033;DHT22;45905;50.570;10.428;2022-10-16T02:13:06;14.60;99.90
60033;DHT22;45905;50.570;10.428;2022-10-16T02:15:37;14.60;99.90
60033;DHT22;45905;50.570;10.428;2022-10-16T02:18:05;14.60;99.90
60033;DHT22;45905;50.570;10.428;2022-10-16T02:20:50;14.60;99.90
60033;DHT22;45905;50.570;10.428;2022-10-16T02:23:35;14.60;99.90
60033;DHT22;45905;50.570;10.428;2022-10-16T02:26:15;14.60;99.90
60033;DHT22;45905;50.570;10.428;2022-10-16T02:28:50;14.60;99.90
60033;DHT22;45905;50.570;10.428;2022-10-16T02:31:26;14.60;99.90
60033;DHT22;45905;50.570;10.428;2022-10-16T02:33:58;14.60;99.90
60033;DHT22;45905;50.570;10.428;2022-10-16T02:36:27;14.60;99.90
60033;DHT22;45905;50.570;10.428;2022-10-16T02:38:54;14.60;99.90
60033;DHT22;45905;50.570;10.428;2022-10-16T02:41:23;14.60;99.90
60033;DHT22;45905;50.570;10.428;2022-10-16T02:43:50;14.60;99.90
60033;DHT22;45905;50.570;10.428;2022-10-16T02:46:18;14.60;99.90
60033;DHT22;45905;50.570;10.428;2022-10-16T02:48:45;14.60;99.90
60033;DHT22;45905;50.570;10.428;2022-10-16T02:51:12;14.60;99.90
60033;DHT22;45905;50.570;10.428;2022-10-16T02:53:39;14.60;99.90
60033;DHT22;45905;50.570;10.428;2022-10-16T02:56:07;14.60;99.90
60033;DHT22;45905;50.570;10.428;2022-10-16T02:58:34;14.60;99.90
60033;DHT22;45905;50.570;10.428;2022-10-16T03:01:01;14.60;99.90
60033;DHT22;45905;50.570;10.428;2022-10-16T03:03:28;14.70;99.90
60033;DHT22;45905;50.570;10.428;2022-10-16T03:05:55;14.60;99.90
60033;DHT22;45905;50.570;10.428;2022-10-16T03:08:22;14.70;99.90
60033;DHT22;45905;50.570;10.428;2022-10-16T03:10:51;14.70;99.90
60033;DHT22;45905;50.570;10.428;2022-10-16T03:13:19;14.70;99.90
60033;DHT22;45905;50.570;10.428;2022-10-16T03:15:47;14.70;99.90
60033;DHT22;45905;50.570;10.428;2022-10-16T03:18:14;14.70;99.90
60033;DHT22;45905;50.570;10.428;2022-10-16T03:20:43;14.70;99.90
60033;DHT22;45905;50.570;10.428;2022-10-16T03:23:10;14.70;99.90
60033;DHT22;45905;50.570;10.428;2022-10-16T03:25:37;14.70;99.90
60033;DHT22;45905;50.570;10.428;2022-10-16T03:28:05;14.70;99.90
60033;DHT22;45905;50.570;10.428;2022-10-16T03:30:32;14.70;99.90
60033;DHT22;45905;50.570;10.428;2022-10-16T03:32:59;14.80;99.90
60033;DHT22;45905;50.570;10.428;2022-10-16T03:35:26;14.80;99.90
60033;DHT22;45905;50.570;10.428;2022-10-16T03:37:53;14.80;99.90
60033;DHT22;45905;50.570;10.428;2022-10-16T03:40:21;14.80;99.90
60033;DHT22;45905;50.570;10.428;2022-10-16T03:42:48;14.80;99.90
60033;DHT22;45905;50.570;10.428;2022-10-16T03:45:15;14.80;99.90
60033;DHT22;45905;50.570;10.428;2022-10-16T03:47:42;14.80;99.90
60033;DHT22;45905;50.570;10.428;2022-10-16T03:50:09;14.80;99.90
60033;DHT22;45905;50.570;10.428;2022-10-16T03:52:36;14.80;99.90
60033;DHT22;45905;50.570;10.428;2022-10-16T03:55:04;14.80;99.90
60033;DHT22;45905;50.570;10.428;2022-10-16T03:57:31;14.80;99.90
60033;DHT22;45905;50.570;10.428;2022-10-16T03:59:59;14.80;99.90
60033;DHT22;45905;50.570;10.428;2022-10-16T04:02:26;14.80;99.90
60033;DHT22;45905;50.570;10.428;2022-10-16T04:04:53;14.90;99.90
60033;DHT22;45905;50.570;10.428;2022-10-16T04:07:20;14.80;99.90
60033;DHT22;45905;50.570;10.428;2022-10-16T04:09:47;14.90;99.90
60033;DHT22;45905;50.570;10.428;2022-10-16T04:12:14;14.90;99.90
60033;DHT22;45905;50.570;10.428;2022-10-16T04:14:41;14.90;99.90
60033;DHT22;45905;50.570;10.428;2022-10-16T04:17:08;14.90;99.90
60033;DHT22;45905;50.570;10.428;2022-10-16T04:19:35;14.90;99.90
60033;DHT22;45905;50.570;10.428;2022-10-16T04:22:02;14.80;99.90
60033;DHT22;45905;50.570;10.428;2022-10-16T04:24:29;14.90;99.90
60033;DHT22;45905;50.570;10.428;2022-10-16T04:26:56;14.90;99.90
60033;DHT22;45905;50.570;10.428;2022-10-16T04:29:23;14.90;99.90
60033;DHT22;45905;50.570;10.428;2022-10-16T04:31:50;14.80;99.90
60033;DHT22;45905;50.570;10.428;2022-10-16T04:34:18;14.90;99.90
60033;DHT22;45905;50.570;10.428;2022-10-16T04:36:47;14.90;99.90
60033;DHT22;45905;50.570;10.428;2022-10-16T04:39:16;14.90;99.90
60033;DHT22;45905;50.570;10.428;2022-10-16T04:41:43;14.80;99.90
60033;DHT22;45905;50.570;10.428;2022-10-16T04:44:11;14.80;99.90
60033;DHT22;45905;50.570;10.428;2022-10-16T04:46:38;14.90;99.90
60033;DHT22;45905;50.570;10.428;2022-10-16T04:49:05;14.90;99.90
60033;DHT22;45905;50.570;10.428;2022-10-16T04:51:32;14.90;99.90
60033;DHT22;45905;50.570;10.428;2022-10-16T04:53:59;14.90;99.90
60033;DHT22;45905;50.570;10.428;2022-10-16T04:56:26;14.80;99.90
60033;DHT22;45905;50.570;10.428;2022-10-16T04:58:53;14.90;99.90
60033;DHT22;45905;50.570;10.428;2022-10-16T05:01:20;14.80;99.90
60033;DHT22;45905;50.570;10.428;2022-10-16T05:03:47;14.80;99.90
60033;DHT22;45905;50.570;10.428;2022-10-16T05:06:14;14.80;99.90
60033;DHT22;45905;50.570;10.428;2022-10-16T05:08:41;14.80;99.90
60033;DHT22;45905;50.570;10.428;2022-10-16T05:11:08;14.80;99.90
60033;DHT22;45905;50.570;10.428;2022-10-16T05:13:36;14.80;99.90
60033;DHT22;45905;50.570;10.428;2022-10-16T05:16:03;14.80;99.90
60033;DHT22;45905;50.570;10.428;2022-10-16T05:18:30;14.80;99.90
60033;DHT22;45905;50.570;10.428;2022-10-16T05:20:57;14.90;99.90
60033;DHT22;45905;50.570;10.428;2022-10-16T05:23:24;14.80;99.90
60033;DHT22;45905;50.570;10.428;2022-10-16T05:25:53;14.80;99.90
60033;DHT22;45905;50.570;10.428;2022-10-16T05:28:26;14.80;99.90
60033;DHT22;45905;50.570;10.428;2022-10-16T05:30:55;14.80;99.90
60033;DHT22;45905;50.570;10.428;2022-10-16T05:33:25;14.80;99.90
60033;DHT22;45905;50.570;10.428;2022-10-16T05:35:52;14.70;99.90
60033;DHT22;45905;50.570;10.428;2022-10-16T05:38:19;14.80;99.90
60033;DHT22;45905;50.570;10.428;2022-10-16T05:40:53;14.80;99.90
60033;DHT22;45905;50.570;10.428;2022-10-16T05:43:20;14.80;99.90
60033;DHT22;45905;50.570;10.428;2022-10-16T05:45:58;14.80;99.90
60033;DHT22;45905;50.570;10.428;2022-10-16T05:48:28;14.80;99.90
60033;DHT22;45905;50.570;10.428;2022-10-16T05:51:01;14.80;99.90
60033;DHT22;45905;50.570;10.428;2022-10-16T05:53:34;14.90;99.90
60033;DHT22;45905;50.570;10.428;2022-10-16T05:56:03;14.90;99.90
60033;DHT22;45905;50.570;10.428;2022-10-16T05:58:34;14.80;99.90
60033;DHT22;45905;50.570;10.428;2022-10-16T06:01:06;14.90;99.90
60033;DHT22;45905;50.570;10.428;2022-10-16T06:03:43;14.80;99.90
60033;DHT22;45905;50.570;10.428;2022-10-16T06:06:13;14.90;99.90
60033;DHT22;45905;50.570;10.428;2022-10-16T06:08:42;14.90;99.90
60033;DHT22;45905;50.570;10.428;2022-10-16T06:11:13;14.80;99.90
60033;DHT22;45905;50.570;10.428;2022-10-16T06:13:42;14.90;99.90
60033;DHT22;45905;50.570;10.428;2022-10-16T06:16:10;14.90;99.90
60033;DHT22;45905;50.570;10.428;2022-10-16T06:18:38;14.80;99.90
60033;DHT22;45905;50.570;10.428;2022-10-16T06:21:16;14.80;99.90
60033;DHT22;45905;50.570;10.428;2022-10-16T06:23:46;14.80;99.90
60033;DHT22;45905;50.570;10.428;2022-10-16T06:26:16;14.80;99.90
60033;DHT22;45905;50.570;10.428;2022-10-16T06:28:47;14.90;99.90
60033;DHT22;45905;50.570;10.428;2022-10-16T06:31:15;14.90;99.90
60033;DHT22;45905;50.570;10.428;2022-10-16T06:33:43;14.90;99.90
60033;DHT22;45905;50.570;10.428;2022-10-16T06:36:15;14.90;99.90
60033;DHT22;45905;50.570;10.428;2022-10-16T06:38:44;14.90;99.90
60033;DHT22;45905;50.570;10.428;2022-10-16T06:41:14;14.90;99.90
60033;DHT22;45905;50.570;10.428;2022-10-16T06:43:42;14.80;99.90
60033;DHT22;45905;50.570;10.428;2022-10-16T06:46:13;14.90;99.90
60033;DHT22;45905;50.570;10.428;2022-10-16T06:48:43;14.90;99.90
60033;DHT22;45905;50.570;10.428;2022-10-16T06:51:22;14.90;99.90
60033;DHT22;45905;50.570;10.428;2022-10-16T06:53:53;14.90;99.90
60033;DHT22;45905;50.570;10.428;2022-10-16T06:56:30;14.90;99.90
60033;DHT22;45905;50.570;10.428;2022-10-16T06:58:59;14.90;99.90
60033;DHT22;45905;50.570;10.428;2022-10-16T07:01:27;14.80;99.90
60033;DHT22;45905;50.570;10.428;2022-10-16T07:03:54;14.90;99.90
60033;DHT22;45905;50.570;10.428;2022-10-16T07:06:23;14.90;99.90
60033;DHT22;45905;50.570;10.428;2022-10-16T07:08:51;14.90;99.90
60033;DHT22;45905;50.570;10.428;2022-10-16T07:11:21;14.90;99.90
60033;DHT22;45905;50.570;10.428;2022-10-16T07:13:50;14.90;99.90
60033;DHT22;45905;50.570;10.428;2022-10-16T07:16:29;15.00;99.90
60033;DHT22;45905;50.570;10.428;2022-10-16T07:18:59;14.90;99.90
60033;DHT22;45905;50.570;10.428;2022-10-16T07:21:30;15.00;99.90
60033;DHT22;45905;50.570;10.428;2022-10-16T07:24:04;15.00;99.90
60033;DHT22;45905;50.570;10.428;2022-10-16T07:26:35;15.00;99.90
60033;DHT22;45905;50.570;10.428;2022-10-16T07:29:03;15.00;99.90
60033;DHT22;45905;50.570;10.428;2022-10-16T07:31:31;15.10;99.90
60033;DHT22;45905;50.570;10.428;2022-10-16T07:33:59;15.10;99.90
60033;DHT22;45905;50.570;10.428;2022-10-16T07:36:27;15.20;99.90
60033;DHT22;45905;50.570;10.428;2022-10-16T07:38:54;15.10;99.90
60033;DHT22;45905;50.570;10.428;2022-10-16T07:41:26;15.10;99.90
60033;DHT22;45905;50.570;10.428;2022-10-16T07:43:54;15.20;99.90
60033;DHT22;45905;50.570;10.428;2022-10-16T07:46:22;15.20;99.90
60033;DHT22;45905;50.570;10.428;2022-10-16T07:48:50;15.20;99.90
60033;DHT22;45905;50.570;10.428;2022-10-16T07:51:22;15.20;99.90
60033;DHT22;45905;50.570;10.428;2022-10-16T07:53:52;15.20;99.90
60033;DHT22;45905;50.570;10.428;2022-10-16T07:56:20;15.20;99.90
60033;DHT22;45905;50.570;10.428;2022-10-16T07:58:48;15.20;99.90
60033;DHT22;45905;50.570;10.428;2022-10-16T08:01:17;15.20;99.90
60033;DHT22;45905;50.570;10.428;2022-10-16T08:03:47;15.20;99.90
60033;DHT22;45905;50.570;10.428;2022-10-16T08:06:16;15.30;99.90
60033;DHT22;45905;50.570;10.428;2022-10-16T08:08:49;15.30;99.90
60033;DHT22;45905;50.570;10.428;2022-10-16T08:11:17;15.30;99.90
60033;DHT22;45905;50.570;10.428;2022-10-16T08:13:44;15.40;99.90
60033;DHT22;45905;50.570;10.428;2022-10-16T08:16:11;15.40;99.90
60033;DHT22;45905;50.570;10.428;2022-10-16T08:18:40;15.40;99.90
60033;DHT22;45905;50.570;10.428;2022-10-16T08:21:13;15.50;99.90
60033;DHT22;45905;50.570;10.428;2022-10-16T08:23:47;15.50;99.90
60033;DHT22;45905;50.570;10.428;2022-10-16T08:26:24;15.50;99.90
60033;DHT22;45905;50.570;10.428;2022-10-16T08:28:53;15.50;99.90
60033;DHT22;45905;50.570;10.428;2022-10-16T08:31:22;15.50;99.90
60033;DHT22;45905;50.570;10.428;2022-10-16T08:33:50;15.60;99.90
60033;DHT22;45905;50.570;10.428;2022-10-16T08:36:17;15.60;99.90
60033;DHT22;45905;50.570;10.428;2022-10-16T08:38:48;15.60;99.90
60033;DHT22;45905;50.570;10.428;2022-10-16T08:48:23;15.70;99.90
60033;DHT22;45905;50.570;10.428;2022-10-16T08:50:39;15.70;99.90
60033;DHT22;45905;50.570;10.428;2022-10-16T08:53:14;15.70;99.90
60033;DHT22;45905;50.570;10.428;2022-10-16T08:55:54;15.80;99.90
60033;DHT22;45905;50.570;10.428;2022-10-16T08:58:25;15.80;99.90
60033;DHT22;45905;50.570;10.428;2022-10-16T09:00:56;15.80;99.90
60033;DHT22;45905;50.570;10.428;2022-10-16T09:07:02;15.90;99.90
60033;DHT22;45905;50.570;10.428;2022-10-16T09:13:03;15.90;99.90
60033;DHT22;45905;50.570;10.428;2022-10-16T09:15:54;16.00;99.90
60033;DHT22;45905;50.570;10.428;2022-10-16T09:18:41;16.00;99.90
60033;DHT22;45905;50.570;10.428;2022-10-16T09:21:25;16.00;99.90
60033;DHT22;45905;50.570;10.428;2022-10-16T09:24:06;16.10;99.90
60033;DHT22;45905;50.570;10.428;2022-10-16T09:26:38;16.20;99.90
60033;DHT22;45905;50.570;10.428;2022-10-16T09:29:05;16.20;99.90
60033;DHT22;45905;50.570;10.428;2022-10-16T09:31:36;16.20;99.90
60033;DHT22;45905;50.570;10.428;2022-10-16T09:34:05;16.20;99.90
60033;DHT22;45905;50.570;10.428;2022-10-16T09:36:44;16.30;99.90
60033;DHT22;45905;50.570;10.428;2022-10-16T09:39:13;16.30;99.90
60033;DHT22;45905;50.570;10.428;2022-10-16T09:41:43;16.40;99.90
60033;DHT22;45905;50.570;10.428;2022-10-16T09:44:31;16.30;99.90
60033;DHT22;45905;50.570;10.428;2022-10-16T09:50:03;16.40;99.90
60033;DHT22;45905;50.570;10.428;2022-10-16T09:52:46;16.40;99.90
60033;DHT22;45905;50.570;10.428;2022-10-16T09:55:15;16.40;99.90
60033;DHT22;45905;50.570;10.428;2022-10-16T09:57:51;16.40;99.90
60033;DHT22;45905;50.570;10.428;2022-10-16T10:00:20;16.40;99.90
60033;DHT22;45905;50.570;10.428;2022-10-16T10:02:49;16.40;99.90
60033;DHT22;45905;50.570;10.428;2022-10-16T10:05:23;16.40;99.90
60033;DHT22;45905;50.570;10.428;2022-10-16T10:08:02;16.50;99.90
60033;DHT22;45905;50.570;10.428;2022-10-16T10:10:39;16.50;99.90
60033;DHT22;45905;50.570;10.428;2022-10-16T10:13:35;16.50;99.90
60033;DHT22;45905;50.570;10.428;2022-10-16T10:16:02;16.40;99.90
60033;DHT22;45905;50.570;10.428;2022-10-16T10:18:29;16.50;99.90
60033;DHT22;45905;50.570;10.428;2022-10-16T10:21:03;16.50;99.90
60033;DHT22;45905;50.570;10.428;2022-10-16T10:23:32;16.50;99.90
60033;DHT22;45905;50.570;10.428;2022-10-16T10:26:16;16.50;99.90
60033;DHT22;45905;50.570;10.428;2022-10-16T10:32:24;16.60;99.90
60033;DHT22;45905;50.570;10.428;2022-10-16T10:35:01;16.60;99.90
60033;DHT22;45905;50.570;10.428;2022-10-16T10:47:06;16.80;99.90
60033;DHT22;45905;50.570;10.428;2022-10-16T10:50:21;16.80;99.90
60033;DHT22;45905;50.570;10.428;2022-10-16T10:53:21;16.80;99.90
60033;DHT22;45905;50.570;10.428;2022-10-16T10:58:35;17.00;99.90
60033;DHT22;45905;50.570;10.428;2022-10-16T11:01:16;17.00;99.90
60033;DHT22;45905;50.570;10.428;2022-10-16T11:04:19;17.00;99.90
60033;DHT22;45905;50.570;10.428;2022-10-16T11:07:17;17.00;99.90
60033;DHT22;45905;50.570;10.428;2022-10-16T11:09:53;17.10;99.90
60033;DHT22;45905;50.570;10.428;2022-10-16T11:12:29;17.10;99.90
60033;DHT22;45905;50.570;10.428;2022-10-16T11:15:21;17.10;99.90
60033;DHT22;45905;50.570;10.428;2022-10-16T11:18:07;17.20;99.90
60033;DHT22;45905;50.570;10.428;2022-10-16T11:20:42;17.20;99.90
60033;DHT22;45905;50.570;10.428;2022-10-16T11:23:25;17.20;99.90
60033;DHT22;45905;50.570;10.428;2022-10-16T11:25:59;17.20;99.90
60033;DHT22;45905;50.570;10.428;2022-10-16T11:28:40;17.30;99.90
60033;DHT22;45905;50.570;10.428;2022-10-16T11:36:57;17.30;99.90
60033;DHT22;45905;50.570;10.428;2022-10-16T11:39:29;17.30;99.90
60033;DHT22;45905;50.570;10.428;2022-10-16T11:42:22;17.40;99.90
60033;DHT22;45905;50.570;10.428;2022-10-16T11:45:03;17.30;99.90
60033;DHT22;45905;50.570;10.428;2022-10-16T11:47:39;17.40;99.90
60033;DHT22;45905;50.570;10.428;2022-10-16T11:53:20;17.40;99.90
60033;DHT22;45905;50.570;10.428;2022-10-16T11:55:48;17.50;99.90
60033;DHT22;45905;50.570;10.428;2022-10-16T12:04:41;17.70;99.90
60033;DHT22;45905;50.570;10.428;2022-10-16T12:07:16;17.70;99.90
60033;DHT22;45905;50.570;10.428;2022-10-16T12:09:46;17.80;99.90
60033;DHT22;45905;50.570;10.428;2022-10-16T12:12:25;17.80;99.90
60033;DHT22;45905;50.570;10.428;2022-10-16T12:15:31;17.90;99.90
60033;DHT22;45905;50.570;10.428;2022-10-16T12:18:24;18.00;99.90
60033;DHT22;45905;50.570;10.428;2022-10-16T12:20:58;18.20;99.90
60033;DHT22;45905;50.570;10.428;2022-10-16T12:23:32;18.40;99.90
60033;DHT22;45905;50.570;10.428;2022-10-16T12:26:04;18.40;99.90
60033;DHT22;45905;50.570;10.428;2022-10-16T12:28:33;18.50;99.90
60033;DHT22;45905;50.570;10.428;2022-10-16T12:31:04;18.60;99.90
60033;DHT22;45905;50.570;10.428;2022-10-16T12:33:35;18.70;99.90
60033;DHT22;45905;50.570;10.428;2022-10-16T12:36:13;18.70;99.90
60033;DHT22;45905;50.570;10.428;2022-10-16T12:38:48;18.80;99.90
60033;DHT22;45905;50.570;10.428;2022-10-16T12:41:34;18.80;99.90
60033;DHT22;45905;50.570;10.428;2022-10-16T12:44:04;18.80;99.90
60033;DHT22;45905;50.570;10.428;2022-10-16T12:46:38;18.70;99.90
60033;DHT22;45905;50.570;10.428;2022-10-16T12:51:40;18.80;99.90
60033;DHT22;45905;50.570;10.428;2022-10-16T12:54:19;18.80;99.90
60033;DHT22;45905;50.570;10.428;2022-10-16T12:57:12;18.80;99.90
60033;DHT22;45905;50.570;10.428;2022-10-16T13:02:39;18.80;99.90
60033;DHT22;45905;50.570;10.428;2022-10-16T13:17:11;18.80;99.90
60033;DHT22;45905;50.570;10.428;2022-10-16T13:23:05;19.10;99.90
60033;DHT22;45905;50.570;10.428;2022-10-16T13:28:44;19.20;99.90
60033;DHT22;45905;50.570;10.428;2022-10-16T13:31:19;19.30;99.90
60033;DHT22;45905;50.570;10.428;2022-10-16T13:33:56;19.40;99.90
60033;DHT22;45905;50.570;10.428;2022-10-16T13:36:34;19.50;99.80
60033;DHT22;45905;50.570;10.428;2022-10-16T13:39:13;19.50;99.70
60033;DHT22;45905;50.570;10.428;2022-10-16T13:41:44;19.60;99.90
60033;DHT22;45905;50.570;10.428;2022-10-16T13:44:18;19.60;99.30
60033;DHT22;45905;50.570;10.428;2022-10-16T13:46:47;19.60;99.10
60033;DHT22;45905;50.570;10.428;2022-10-16T13:49:26;19.60;99.00
60033;DHT22;45905;50.570;10.428;2022-10-16T13:51:58;19.60;99.40
60033;DHT22;45905;50.570;10.428;2022-10-16T13:54:27;19.60;98.80
60033;DHT22;45905;50.570;10.428;2022-10-16T13:57:04;19.60;98.80
60033;DHT22;45905;50.570;10.428;2022-10-16T13:59:52;19.50;98.70
60033;DHT22;45905;50.570;10.428;2022-10-16T14:02:38;19.50;98.70
60033;DHT22;45905;50.570;10.428;2022-10-16T14:05:09;19.40;97.90
60033;DHT22;45905;50.570;10.428;2022-10-16T14:07:40;19.30;98.10
60033;DHT22;45905;50.570;10.428;2022-10-16T14:10:41;19.30;98.50
60033;DHT22;45905;50.570;10.428;2022-10-16T14:13:17;19.30;98.80
60033;DHT22;45905;50.570;10.428;2022-10-16T14:15:51;19.40;98.80
60033;DHT22;45905;50.570;10.428;2022-10-16T14:18:21;19.20;98.80
60033;DHT22;45905;50.570;10.428;2022-10-16T14:20:51;19.20;98.90
60033;DHT22;45905;50.570;10.428;2022-10-16T14:23:45;19.20;98.80
60033;DHT22;45905;50.570;10.428;2022-10-16T14:28:41;19.20;98.80
60033;DHT22;45905;50.570;10.428;2022-10-16T14:33:56;19.20;99.00
60033;DHT22;45905;50.570;10.428;2022-10-16T14:36:26;19.10;99.00
60033;DHT22;45905;50.570;10.428;2022-10-16T14:41:32;19.10;99.00
60033;DHT22;45905;50.570;10.428;2022-10-16T14:44:10;19.10;99.10
60033;DHT22;45905;50.570;10.428;2022-10-16T14:46:44;19.10;99.10
60033;DHT22;45905;50.570;10.428;2022-10-16T14:51:42;19.10;99.30
60033;DHT22;45905;50.570;10.428;2022-10-16T14:54:16;19.10;99.30
60033;DHT22;45905;50.570;10.428;2022-10-16T14:56:55;19.10;99.30
60033;DHT22;45905;50.570;10.428;2022-10-16T15:02:22;19.20;99.30
60033;DHT22;45905;50.570;10.428;2022-10-16T15:04:55;19.20;99.00
60033;DHT22;45905;50.570;10.428;2022-10-16T15:07:23;19.20;98.90
60033;DHT22;45905;50.570;10.428;2022-10-16T15:09:51;19.20;99.10
60033;DHT22;45905;50.570;10.428;2022-10-16T15:12:18;19.20;99.10
60033;DHT22;45905;50.570;10.428;2022-10-16T15:14:45;19.20;99.20
60033;DHT22;45905;50.570;10.428;2022-10-16T15:17:12;19.30;99.20
60033;DHT22;45905;50.570;10.428;2022-10-16T15:19:43;19.20;99.00
60033;DHT22;45905;50.570;10.428;2022-10-16T15:22:11;19.20;98.90
60033;DHT22;45905;50.570;10.428;2022-10-16T15:24:39;19.20;99.10
60033;DHT22;45905;50.570;10.428;2022-10-16T15:27:06;19.20;99.10
60033;DHT22;45905;50.570;10.428;2022-10-16T15:29:33;19.20;98.90
60033;DHT22;45905;50.570;10.428;2022-10-16T15:32:00;19.20;99.00
60033;DHT22;45905;50.570;10.428;2022-10-16T15:34:27;19.20;99.00
60033;DHT22;45905;50.570;10.428;2022-10-16T15:36:54;19.20;99.10
60033;DHT22;45905;50.570;10.428;2022-10-16T15:39:24;19.10;98.90
60033;DHT22;45905;50.570;10.428;2022-10-16T15:41:51;19.10;99.00
60033;DHT22;45905;50.570;10.428;2022-10-16T15:44:20;19.10;99.10
60033;DHT22;45905;50.570;10.428;2022-10-16T15:46:50;19.00;99.10
60033;DHT22;45905;50.570;10.428;2022-10-16T15:49:17;19.00;99.10
60033;DHT22;45905;50.570;10.428;2022-10-16T15:51:45;18.90;99.10
60033;DHT22;45905;50.570;10.428;2022-10-16T15:54:12;18.90;99.10
60033;DHT22;45905;50.570;10.428;2022-10-16T15:56:39;18.90;99.10
60033;DHT22;45905;50.570;10.428;2022-10-16T15:59:07;18.80;99.10
60033;DHT22;45905;50.570;10.428;2022-10-16T16:01:35;18.70;99.10
60033;DHT22;45905;50.570;10.428;2022-10-16T16:04:03;18.70;99.20
60033;DHT22;45905;50.570;10.428;2022-10-16T16:06:41;18.70;99.20
60033;DHT22;45905;50.570;10.428;2022-10-16T16:09:12;18.60;99.20
60033;DHT22;45905;50.570;10.428;2022-10-16T16:11:40;18.60;99.30
60033;DHT22;45905;50.570;10.428;2022-10-16T16:14:11;18.50;99.20
60033;DHT22;45905;50.570;10.428;2022-10-16T16:16:39;18.50;99.30
60033;DHT22;45905;50.570;10.428;2022-10-16T16:19:08;18.40;99.30
60033;DHT22;45905;50.570;10.428;2022-10-16T16:21:38;18.40;99.30
60033;DHT22;45905;50.570;10.428;2022-10-16T16:24:05;18.40;99.40
60033;DHT22;45905;50.570;10.428;2022-10-16T16:26:36;18.30;99.40
60033;DHT22;45905;50.570;10.428;2022-10-16T16:29:06;18.30;99.40
60033;DHT22;45905;50.570;10.428;2022-10-16T16:31:33;18.20;99.40
60033;DHT22;45905;50.570;10.428;2022-10-16T16:34:02;18.20;99.60
60033;DHT22;45905;50.570;10.428;2022-10-16T16:36:29;18.20;99.70
60033;DHT22;45905;50.570;10.428;2022-10-16T16:38:57;18.10;99.90
60033;DHT22;45905;50.570;10.428;2022-10-16T16:41:26;18.10;99.70
60033;DHT22;45905;50.570;10.428;2022-10-16T16:43:56;18.00;99.80
60033;DHT22;45905;50.570;10.428;2022-10-16T16:46:28;18.00;99.80
60033;DHT22;45905;50.570;10.428;2022-10-16T16:48:57;17.90;99.80
60033;DHT22;45905;50.570;10.428;2022-10-16T16:51:25;18.00;99.90
60033;DHT22;45905;50.570;10.428;2022-10-16T16:53:53;17.90;99.90
60033;DHT22;45905;50.570;10.428;2022-10-16T16:56:22;17.90;99.90
60033;DHT22;45905;50.570;10.428;2022-10-16T16:58:52;17.80;99.90
60033;DHT22;45905;50.570;10.428;2022-10-16T17:01:23;17.80;99.90
60033;DHT22;45905;50.570;10.428;2022-10-16T17:03:53;17.80;99.90
60033;DHT22;45905;50.570;10.428;2022-10-16T17:06:24;17.70;99.90
60033;DHT22;45905;50.570;10.428;2022-10-16T17:08:53;17.70;99.90
60033;DHT22;45905;50.570;10.428;2022-10-16T17:11:23;17.70;99.90
60033;DHT22;45905;50.570;10.428;2022-10-16T17:13:53;17.60;99.90
60033;DHT22;45905;50.570;10.428;2022-10-16T17:16:34;17.60;99.90
60033;DHT22;45905;50.570;10.428;2022-10-16T17:19:05;17.50;99.90
60033;DHT22;45905;50.570;10.428;2022-10-16T17:21:35;17.50;99.90
60033;DHT22;45905;50.570;10.428;2022-10-16T17:24:02;17.50;99.90
60033;DHT22;45905;50.570;10.428;2022-10-16T17:26:30;17.50;99.90
60033;DHT22;45905;50.570;10.428;2022-10-16T17:29:00;17.50;99.90